Time;durP1;ratioP1;P1;durP2;ratioP2;P2;SDS_P1;SDS_P2;PMS_P1;PMS_P2;Temp;Humidity;BMP_temperature;BMP_pressure;BME280_temperature;BME280_humidity;BME280_pressure;Samples;Min_cycle;Max_cycle;Signal;HPM_P1;HPM_P2
2022/05/18 00:01:40;;;;;;;;;;;;;;;22.50;58.69;101536.03;7287050;19;152662;-59
2022/05/18 00:04:05;;;;;;;;;;;;;;;22.45;58.41;101542.59;7285580;19;151901;-58
2022/05/18 00:06:33;;;;;;;;;;;;;;;22.50;59.11;101536.03;7286919;19;151502;-58
2022/05/18 00:09:00;;;;;;;;;;;;;;;22.44;58.68;101555.00;7284074;19;153619;-59
2022/05/18 00:11:27;;;;;;;;;;;;;;;22.53;59.04;101543.91;7292435;19;153122;-59
2022/05/18 00:13:54;;;;;;;;;;;;;;;22.54;58.72;101542.75;7285911;19;152953;-58
2022/05/18 00:16:22;;;;;;;;;;;;;;;22.46;58.87;101547.09;7284794;19;153327;-59
2022/05/18 00:18:49;;;;;;;;;;;;;;;22.49;58.73;101549.28;7285499;19;151982;-59
2022/05/18 00:21:17;;;;;;;;;;;;;;;22.50;58.65;101556.59;7287277;19;153082;-59
2022/05/18 00:23:44;;;;;;;;;;;;;;;22.51;59.00;101561.09;7283688;19;154119;-59
2022/05/18 00:26:12;;;;;;;;;;;;;;;22.51;58.87;101563.91;7285904;19;151969;-58
2022/05/18 00:28:39;;;;;;;;;;;;;;;22.53;59.11;101560.81;7285633;19;153408;-59
2022/05/18 00:31:06;;;;;;;;;;;;;;;22.57;59.17;101571.16;7291865;19;154174;-59
2022/05/18 00:33:32;;;;;;;;;;;;;;;22.58;59.18;101569.13;7280468;19;151671;-58
2022/05/18 00:35:59;;;;;;;;;;;;;;;22.56;58.68;101574.25;7283608;19;153790;-58
2022/05/18 00:38:26;;;;;;;;;;;;;;;22.53;59.19;101564.44;7282335;19;151671;-59
2022/05/18 00:40:53;;;;;;;;;;;;;;;22.54;59.29;101566.09;7282325;19;151798;-59
2022/05/18 00:43:35;;;;;;;;;;;;;;;22.56;59.17;101583.53;7282836;19;154493;-58
2022/05/18 00:46:04;;;;;;;;;;;;;;;22.54;59.58;101577.38;7285853;19;151721;-59
2022/05/18 00:48:31;;;;;;;;;;;;;;;22.49;57.69;101577.44;7283357;19;153183;-60
2022/05/18 00:50:58;;;;;;;;;;;;;;;22.50;57.32;101581.94;7283670;19;154121;-59
2022/05/18 00:53:25;;;;;;;;;;;;;;;22.49;58.15;101582.25;7293467;19;152009;-59
2022/05/18 00:55:52;;;;;;;;;;;;;;;22.46;58.28;101591.31;7284224;19;154142;-59
2022/05/18 00:58:19;;;;;;;;;;;;;;;22.51;58.68;101586.44;7283054;19;151970;-60
2022/05/18 01:00:46;;;;;;;;;;;;;;;22.50;58.65;101581.94;7283037;19;152881;-59
2022/05/18 01:03:16;;;;;;;;;;;;;;;22.53;58.86;101586.16;7282794;19;154425;-58
2022/05/18 01:05:45;;;;;;;;;;;;;;;22.52;58.31;101585.31;7284535;19;152085;-58
2022/05/18 01:08:14;;;;;;;;;;;;;;;22.50;58.12;101587.56;7281390;19;152325;-58
2022/05/18 01:10:46;;;;;;;;;;;;;;;22.54;58.43;101594.28;7287569;19;151832;-58
2022/05/18 01:13:13;;;;;;;;;;;;;;;22.58;58.73;101600.13;7290760;19;152192;-59
2022/05/18 01:15:38;;;;;;;;;;;;;;;22.57;58.50;101592.84;7296614;19;152006;-59
2022/05/18 01:18:08;;;;;;;;;;;;;;;22.59;58.60;101598.97;7290936;19;151778;-59
2022/05/18 01:20:37;;;;;;;;;;;;;;;22.57;58.87;101602.13;7290003;19;152943;-58
2022/05/18 01:23:04;;;;;;;;;;;;;;;22.55;58.25;101612.84;7289645;19;154026;-59
2022/05/18 01:25:31;;;;;;;;;;;;;;;22.54;58.50;101608.34;7291130;19;151637;-59
2022/05/18 01:27:58;;;;;;;;;;;;;;;22.55;58.78;101607.22;7290223;19;153854;-59
2022/05/18 01:30:25;;;;;;;;;;;;;;;22.52;58.75;101613.47;7289266;19;153512;-58
2022/05/18 01:32:54;;;;;;;;;;;;;;;22.54;58.87;101619.63;7290383;19;151730;-58
2022/05/18 01:35:22;;;;;;;;;;;;;;;22.56;58.57;101622.13;7289965;19;153355;-58
2022/05/18 01:37:50;;;;;;;;;;;;;;;22.59;58.84;101624.34;7296980;19;151772;-58
2022/05/18 01:40:20;;;;;;;;;;;;;;;22.57;58.73;101621.00;7289089;19;152120;-58
2022/05/18 01:42:52;;;;;;;;;;;;;;;22.57;58.88;101621.84;7288959;19;153279;-59
2022/05/18 01:45:19;;;;;;;;;;;;;;;22.36;53.88;101622.44;7289623;19;152137;-60
2022/05/18 01:47:48;;;;;;;;;;;;;;;22.12;54.56;101631.78;7290511;19;153597;-59
2022/05/18 01:50:20;;;;;;;;;;;;;;;22.26;56.21;101629.06;7288890;19;154446;-59
2022/05/18 01:52:47;;;;;;;;;;;;;;;22.33;56.24;101631.50;7289987;19;151684;-59
2022/05/18 01:55:16;;;;;;;;;;;;;;;22.36;56.45;101625.25;7290605;19;152742;-59
2022/05/18 01:57:41;;;;;;;;;;;;;;;22.38;56.79;101635.09;7285575;19;152174;-59
2022/05/18 02:00:09;;;;;;;;;;;;;;;22.40;56.40;101629.97;7297203;19;151995;-58
2022/05/18 02:02:36;;;;;;;;;;;;;;;22.40;56.59;101640.41;7288370;19;153511;-58
2022/05/18 02:05:03;;;;;;;;;;;;;;;22.43;57.01;101637.84;7290297;19;151493;-58
2022/05/18 02:07:30;;;;;;;;;;;;;;;22.41;56.99;101642.06;7289255;19;152555;-58
2022/05/18 02:09:58;;;;;;;;;;;;;;;22.41;57.06;101640.09;7285460;19;152044;-59
2022/05/18 02:12:23;;;;;;;;;;;;;;;22.41;57.02;101642.06;7290218;19;151520;-58
2022/05/18 02:14:50;;;;;;;;;;;;;;;22.40;56.88;101638.41;7290218;19;152382;-59
2022/05/18 02:17:17;;;;;;;;;;;;;;;22.41;57.03;101651.38;7288080;19;151870;-58
2022/05/18 02:19:44;;;;;;;;;;;;;;;22.43;57.13;101643.47;7289136;19;151682;-58
2022/05/18 02:22:12;;;;;;;;;;;;;;;22.42;57.24;101636.16;7294318;19;151897;-58
2022/05/18 02:24:39;;;;;;;;;;;;;;;22.39;57.05;101648.03;7288288;19;151807;-58
2022/05/18 02:27:06;;;;;;;;;;;;;;;22.41;57.27;101645.72;7288092;19;153529;-59
2022/05/18 02:29:34;;;;;;;;;;;;;;;22.40;57.46;101644.06;7288140;19;153329;-59
2022/05/18 02:32:01;;;;;;;;;;;;;;;22.41;57.25;101656.16;7288979;19;151778;-59
2022/05/18 02:34:28;;;;;;;;;;;;;;;22.44;57.49;101658.38;7287839;19;153289;-59
2022/05/18 02:36:55;;;;;;;;;;;;;;;22.38;57.21;101656.78;7285195;19;155204;-58
2022/05/18 02:39:22;;;;;;;;;;;;;;;22.40;57.58;101658.13;7286186;19;152091;-58
2022/05/18 02:41:49;;;;;;;;;;;;;;;22.42;57.20;101661.50;7292860;19;153554;-59
2022/05/18 02:44:16;;;;;;;;;;;;;;;22.45;57.28;101666.50;7288468;19;151844;-59
2022/05/18 02:46:43;;;;;;;;;;;;;;;22.44;57.35;101662.00;7288557;19;153210;-59
2022/05/18 02:49:11;;;;;;;;;;;;;;;22.43;57.80;101663.19;7285841;19;153981;-58
2022/05/18 02:51:39;;;;;;;;;;;;;;;22.43;57.14;101677.25;7287863;19;152084;-58
2022/05/18 02:56:05;;;;;;;;;;;;;;;22.44;57.11;101676.09;7289154;19;153455;-59
2022/05/18 02:57:00;;;;;;;;;;;;;;;22.41;57.40;101679.53;7285592;19;152361;-58
2022/05/18 02:59:28;;;;;;;;;;;;;;;22.41;57.15;101685.16;7283640;19;151700;-58
2022/05/18 03:01:55;;;;;;;;;;;;;;;22.40;57.11;101683.47;7285528;19;153589;-58
2022/05/18 03:04:22;;;;;;;;;;;;;;;22.42;57.61;101686.84;7294792;19;153391;-58
2022/05/18 03:06:49;;;;;;;;;;;;;;;22.40;56.86;101686.28;7288043;19;152652;-58
2022/05/18 03:09:17;;;;;;;;;;;;;;;22.39;57.30;101695.91;7286676;19;153298;-58
2022/05/18 03:11:46;;;;;;;;;;;;;;;22.43;57.50;101690.50;7287600;19;151866;-60
2022/05/18 03:14:13;;;;;;;;;;;;;;;22.38;57.34;101696.19;7286740;19;153411;-58
2022/05/18 03:16:42;;;;;;;;;;;;;;;22.39;57.55;101701.53;7286011;19;153497;-58
2022/05/18 03:19:10;;;;;;;;;;;;;;;22.39;57.19;101690.28;7288245;19;152069;-58
2022/05/18 03:24:08;;;;;;;;;;;;;;;22.43;57.52;101699.78;7286784;19;154220;-59
2022/05/18 03:26:35;;;;;;;;;;;;;;;22.41;57.75;101695.56;7291554;19;151566;-59
2022/05/18 03:29:02;;;;;;;;;;;;;;;22.38;57.27;101705.47;7286111;19;153362;-58
2022/05/18 03:31:29;;;;;;;;;;;;;;;22.39;57.85;101700.69;7283218;19;151962;-59
2022/05/18 03:33:58;;;;;;;;;;;;;;;22.41;58.12;101716.13;7285419;19;151784;-59
2022/05/18 03:36:25;;;;;;;;;;;;;;;22.38;57.67;101701.81;7286779;19;153289;-59
2022/05/18 03:38:52;;;;;;;;;;;;;;;22.37;57.81;101712.25;7285686;19;151941;-59
2022/05/18 03:41:20;;;;;;;;;;;;;;;22.38;57.71;101710.28;7285726;19;153782;-59
2022/05/18 03:43:47;;;;;;;;;;;;;;;22.37;58.01;101709.44;7285657;19;153326;-59
2022/05/18 03:46:15;;;;;;;;;;;;;;;22.37;57.86;101711.41;7287468;19;151999;-59
2022/05/18 03:48:43;;;;;;;;;;;;;;;22.36;58.01;101709.72;7291811;19;153674;-59
2022/05/18 03:51:09;;;;;;;;;;;;;;;22.35;58.11;101714.50;7284417;19;151494;-59
2022/05/18 03:53:36;;;;;;;;;;;;;;;22.38;58.18;101718.72;7285260;19;152721;-59
2022/05/18 03:56:03;;;;;;;;;;;;;;;22.36;57.79;101716.19;7286281;19;153533;-59
2022/05/18 03:58:31;;;;;;;;;;;;;;;22.36;57.66;101721.00;7283752;19;151800;-58
2022/05/18 04:01:00;;;;;;;;;;;;;;;22.35;57.89;101716.53;7284336;19;152780;-59
2022/05/18 04:03:25;;;;;;;;;;;;;;;22.36;57.72;101729.44;7285329;19;154089;-58
2022/05/18 04:05:53;;;;;;;;;;;;;;;22.35;57.65;101728.59;7286813;19;151613;-58
2022/05/18 04:08:20;;;;;;;;;;;;;;;22.37;58.32;101722.66;7285309;19;153499;-58
2022/05/18 04:10:47;;;;;;;;;;;;;;;22.37;57.71;101736.75;7290529;19;152590;-58
2022/05/18 04:13:16;;;;;;;;;;;;;;;22.40;57.92;101736.13;7286088;19;151687;-58
2022/05/18 04:15:43;;;;;;;;;;;;;;;22.36;57.71;101735.91;7283474;19;154993;-58
2022/05/18 04:20:38;;;;;;;;;;;;;;;22.35;57.81;101739.03;7285838;19;152613;-59
2022/05/18 04:23:06;;;;;;;;;;;;;;;22.33;58.09;101738.50;7285700;19;152437;-59
2022/05/18 04:25:34;;;;;;;;;;;;;;;22.36;58.23;101738.72;7286019;19;151957;-58
2022/05/18 04:28:01;;;;;;;;;;;;;;;22.36;58.39;101735.91;7284270;19;153602;-58
2022/05/18 04:30:28;;;;;;;;;;;;;;;22.33;58.21;101750.59;7285215;19;153448;-58
2022/05/18 04:32:55;;;;;;;;;;;;;;;22.35;58.39;101747.50;7293530;19;151561;-58
2022/05/18 04:35:23;;;;;;;;;;;;;;;22.35;58.47;101756.75;7284985;19;152694;-58
2022/05/18 04:37:51;;;;;;;;;;;;;;;22.35;58.31;101745.50;7284919;19;151861;-58
2022/05/18 04:40:18;;;;;;;;;;;;;;;22.33;58.01;101749.75;7286096;19;152615;-59
2022/05/18 04:42:45;;;;;;;;;;;;;;;22.34;58.27;101751.44;7283891;19;153331;-59
2022/05/18 04:45:14;;;;;;;;;;;;;;;22.36;58.35;101760.41;7287930;19;152617;-59
2022/05/18 04:47:41;;;;;;;;;;;;;;;22.33;58.33;101767.50;7292357;19;153620;-58
2022/05/18 04:50:08;;;;;;;;;;;;;;;22.33;58.69;101767.50;7288675;19;154029;-58
2022/05/18 04:52:35;;;;;;;;;;;;;;;22.35;58.77;101768.00;7297433;19;151507;-59
2022/05/18 04:55:03;;;;;;;;;;;;;;;22.33;58.66;101777.91;7288440;19;151960;-59
2022/05/18 04:57:30;;;;;;;;;;;;;;;22.32;58.56;101785.50;7291292;19;151973;-59
2022/05/18 04:59:57;;;;;;;;;;;;;;;22.29;58.42;101777.69;7289830;19;152867;-58
2022/05/18 05:02:24;;;;;;;;;;;;;;;22.32;58.69;101771.44;7289326;19;153479;-59
2022/05/18 05:04:52;;;;;;;;;;;;;;;22.29;58.80;101777.69;7289199;19;152290;-59
2022/05/18 05:07:17;;;;;;;;;;;;;;;22.31;58.70;101783.84;7290023;19;151973;-59
2022/05/18 05:09:44;;;;;;;;;;;;;;;22.31;58.21;101791.44;7290619;19;152285;-59
2022/05/18 05:12:12;;;;;;;;;;;;;;;22.30;58.28;101793.44;7288129;19;151758;-59
2022/05/18 05:14:39;;;;;;;;;;;;;;;22.32;58.46;101793.13;7294244;19;151958;-58
2022/05/18 05:17:07;;;;;;;;;;;;;;;22.31;58.46;101802.69;7288799;19;151562;-59
2022/05/18 05:19:34;;;;;;;;;;;;;;;22.28;58.57;101803.31;7289045;19;152012;-59
2022/05/18 05:22:01;;;;;;;;;;;;;;;22.26;58.55;101805.59;7288358;19;153924;-58
2022/05/18 05:24:28;;;;;;;;;;;;;;;22.26;59.14;101800.78;7291551;19;152562;-58
2022/05/18 05:26:55;;;;;;;;;;;;;;;22.25;59.07;101810.38;7291256;19;152840;-59
2022/05/18 05:29:22;;;;;;;;;;;;;;;22.25;58.70;101804.75;7287998;19;154991;-59
2022/05/18 05:31:49;;;;;;;;;;;;;;;22.24;58.90;101817.16;7289619;19;152032;-58
2022/05/18 05:34:17;;;;;;;;;;;;;;;22.25;59.28;101818.84;7291058;19;152949;-59
2022/05/18 05:36:44;;;;;;;;;;;;;;;22.24;59.25;101827.56;7296188;19;154632;-59
2022/05/18 05:39:11;;;;;;;;;;;;;;;22.26;58.95;101828.13;7290772;19;152652;-58
2022/05/18 05:41:38;;;;;;;;;;;;;;;22.25;59.48;101824.47;7287387;19;154033;-58
2022/05/18 05:44:05;;;;;;;;;;;;;;;22.26;58.99;101828.94;7288432;19;151774;-58
2022/05/18 05:46:32;;;;;;;;;;;;;;;22.25;59.07;101835.72;7290542;19;153230;-59
2022/05/18 05:48:59;;;;;;;;;;;;;;;22.26;59.17;101839.38;7290480;19;152530;-59
2022/05/18 05:51:26;;;;;;;;;;;;;;;22.26;59.21;101845.81;7289310;19;151882;-59
2022/05/18 05:53:53;;;;;;;;;;;;;;;22.31;58.86;101844.94;7290284;19;152218;-59
2022/05/18 05:56:21;;;;;;;;;;;;;;;22.29;58.49;101835.97;7288217;19;151747;-59
2022/05/18 05:58:48;;;;;;;;;;;;;;;22.26;59.14;101837.38;7293372;19;151806;-59
2022/05/18 06:01:16;;;;;;;;;;;;;;;22.25;58.59;101847.00;7288377;19;154744;-58
2022/05/18 06:03:43;;;;;;;;;;;;;;;22.24;58.67;101845.31;7289211;19;152009;-58
2022/05/18 06:06:10;;;;;;;;;;;;;;;22.24;58.91;101850.94;7289588;19;153487;-58
2022/05/18 06:11:09;;;;;;;;;;;;;;;22.22;58.68;101852.34;7288307;19;151946;-58
2022/05/18 06:13:37;;;;;;;;;;;;;;;22.24;58.73;101852.91;7289499;19;153418;-58
2022/05/18 06:16:03;;;;;;;;;;;;;;;22.21;58.87;101847.88;7286824;19;151999;-58
2022/05/18 06:18:30;;;;;;;;;;;;;;;22.20;58.93;101863.94;7287727;19;151921;-58
2022/05/18 06:20:58;;;;;;;;;;;;;;;22.20;57.95;101869.56;7293062;19;154011;-59
2022/05/18 06:23:25;;;;;;;;;;;;;;;22.25;58.62;101871.47;7289369;19;151570;-59
2022/05/18 06:25:52;;;;;;;;;;;;;;;22.21;57.36;101870.41;7287435;19;152663;-59
2022/05/18 06:28:19;;;;;;;;;;;;;;;22.22;56.51;101866.44;7286973;19;154439;-58
2022/05/18 06:30:46;;;;;;;;;;;;;;;22.16;56.54;101872.13;7287034;19;152132;-59
2022/05/18 06:33:13;;;;;;;;;;;;;;;22.11;56.52;101871.34;7289736;19;152811;-59
2022/05/18 06:35:40;;;;;;;;;;;;;;;22.13;56.88;101883.97;7288116;19;153904;-60
2022/05/18 06:38:09;;;;;;;;;;;;;;;22.04;55.90;101879.28;7287650;19;151695;-59
2022/05/18 06:43:09;;;;;;;;;;;;;;;22.00;55.54;101884.66;7291688;19;151608;-60
2022/05/18 06:45:36;;;;;;;;;;;;;;;21.96;55.34;101880.78;7286631;19;153307;-59
2022/05/18 06:50:31;;;;;;;;;;;;;;;22.04;55.90;101893.34;7288601;19;151925;-59
2022/05/18 06:52:58;;;;;;;;;;;;;;;21.90;53.58;101892.31;7285218;19;153728;-60
2022/05/18 06:55:25;;;;;;;;;;;;;;;21.89;54.04;101891.50;7287993;19;153662;-60
2022/05/18 06:58:12;;;;;;;;;;;;;;;21.86;54.69;101889.25;7285416;19;151897;-60
2022/05/18 07:00:39;;;;;;;;;;;;;;;21.86;54.08;101885.59;7287460;19;154589;-60
2022/05/18 07:03:06;;;;;;;;;;;;;;;21.88;53.81;101888.97;7292598;19;154077;-60
2022/05/18 07:05:33;;;;;;;;;;;;;;;21.83;54.32;101892.69;7289014;19;153560;-60
2022/05/18 07:08:02;;;;;;;;;;;;;;;21.84;53.57;101896.34;7284494;19;153098;-59
2022/05/18 07:10:30;;;;;;;;;;;;;;;21.83;53.40;101887.03;7287848;19;151525;-60
2022/05/18 07:12:57;;;;;;;;;;;;;;;21.85;53.71;101881.94;7285090;19;153496;-60
2022/05/18 07:15:24;;;;;;;;;;;;;;;21.85;53.44;101878.31;7287202;19;154051;-59
2022/05/18 07:17:51;;;;;;;;;;;;;;;21.80;53.62;101889.63;7288332;19;151739;-61
2022/05/18 07:20:31;;;;;;;;;;;;;;;21.79;53.39;101890.75;7286151;19;152078;-59
2022/05/18 07:22:58;;;;;;;;;;;;;;;21.88;54.01;101888.97;7284076;19;154578;-59
2022/05/18 07:25:25;;;;;;;;;;;;;;;21.86;54.13;101894.88;7294757;19;151513;-59
2022/05/18 07:27:52;;;;;;;;;;;;;;;21.85;53.76;101893.19;7285826;19;154343;-60
2022/05/18 07:30:39;;;;;;;;;;;;;;;21.81;53.47;101900.56;7287084;19;151917;-60
2022/05/18 07:33:06;;;;;;;;;;;;;;;21.80;53.45;101895.25;7286021;19;152725;-59
2022/05/18 07:35:33;;;;;;;;;;;;;;;21.79;53.82;101896.38;7281279;19;152055;-60
2022/05/18 07:38:01;;;;;;;;;;;;;;;21.76;53.92;101908.22;7287244;19;151956;-60
2022/05/18 07:40:49;;;;;;;;;;;;;;;21.74;53.44;101900.06;7286961;19;154516;-59
2022/05/18 07:45:46;;;;;;;;;;;;;;;21.70;52.86;101896.16;7286714;19;152566;-60
2022/05/18 07:48:18;;;;;;;;;;;;;;;21.72;52.42;101897.53;7291387;19;151610;-60
2022/05/18 07:50:45;;;;;;;;;;;;;;;21.72;52.37;101913.56;7281817;19;151793;-60
2022/05/18 07:53:12;;;;;;;;;;;;;;;21.69;52.38;101908.53;7283659;19;151866;-60
2022/05/18 07:55:41;;;;;;;;;;;;;;;21.69;52.17;101912.19;7280503;19;152781;-59
2022/05/18 07:58:10;;;;;;;;;;;;;;;21.65;51.98;101905.47;7283607;19;152286;-60
2022/05/18 08:00:38;;;;;;;;;;;;;;;21.65;51.83;101915.88;7285249;19;152864;-59
2022/05/18 08:03:05;;;;;;;;;;;;;;;21.66;52.05;101912.78;7283137;19;154099;-59
2022/05/18 08:05:33;;;;;;;;;;;;;;;21.64;52.15;101923.47;7286098;19;152272;-59
2022/05/18 08:15:36;;;;;;;;;;;;;;;21.61;51.85;101915.63;7284558;19;154244;-59
2022/05/18 08:18:05;;;;;;;;;;;;;;;21.61;52.06;101912.81;7284351;19;151844;-60
2022/05/18 08:20:37;;;;;;;;;;;;;;;21.59;51.41;101915.06;7284960;19;153146;-60
2022/05/18 08:23:02;;;;;;;;;;;;;;;21.58;52.63;101921.81;7280676;19;152565;-59
2022/05/18 08:25:29;;;;;;;;;;;;;;;21.61;51.91;101928.84;7285766;19;151747;-60
2022/05/18 08:27:56;;;;;;;;;;;;;;;21.59;51.82;101936.72;7284908;19;152968;-60
2022/05/18 08:30:23;;;;;;;;;;;;;;;21.57;51.54;101931.41;7279391;19;152058;-60
2022/05/18 08:32:50;;;;;;;;;;;;;;;21.56;51.93;101938.16;7290491;19;151814;-59
2022/05/18 08:35:17;;;;;;;;;;;;;;;21.56;51.65;101924.09;7285047;19;152219;-59
2022/05/18 08:37:46;;;;;;;;;;;;;;;21.56;51.37;101924.09;7281224;19;152279;-60
2022/05/18 08:40:28;;;;;;;;;;;;;;;21.56;51.76;101929.72;7284277;19;153501;-59
2022/05/18 08:42:55;;;;;;;;;;;;;;;21.58;51.63;101932.22;7283120;19;153918;-59
2022/05/18 08:45:22;;;;;;;;;;;;;;;21.57;51.71;101933.38;7285537;19;151642;-60
2022/05/18 08:47:53;;;;;;;;;;;;;;;21.56;51.37;101931.69;7282560;19;151629;-60
2022/05/18 08:50:20;;;;;;;;;;;;;;;21.57;50.97;101948.28;7284273;19;152505;-60
2022/05/18 08:52:51;;;;;;;;;;;;;;;21.56;50.76;101938.16;7290369;19;151739;-60
2022/05/18 08:55:22;;;;;;;;;;;;;;;21.56;50.46;101938.16;7283802;19;154147;-59
2022/05/18 08:57:48;;;;;;;;;;;;;;;21.56;50.26;101938.16;7281517;19;151689;-59
2022/05/18 09:00:17;;;;;;;;;;;;;;;21.56;50.34;101932.53;7281101;19;152254;-59
2022/05/18 09:02:45;;;;;;;;;;;;;;;21.55;49.65;101928.03;7283252;19;153802;-58
2022/05/18 09:05:16;;;;;;;;;;;;;;;21.53;49.16;101938.72;7281736;19;152378;-59
2022/05/18 09:07:52;;;;;;;;;;;;;;;21.55;50.13;101942.09;7284959;19;152721;-59
2022/05/18 09:10:20;;;;;;;;;;;;;;;21.55;50.04;101936.47;7281753;19;152162;-59
2022/05/18 09:15:18;;;;;;;;;;;;;;;21.57;50.04;101939.00;7291990;19;152789;-59
2022/05/18 09:17:47;;;;;;;;;;;;;;;21.58;49.65;101938.69;7280738;19;151906;-59
2022/05/18 09:20:17;;;;;;;;;;;;;;;21.58;49.09;101930.25;7284851;19;152346;-59
2022/05/18 09:22:48;;;;;;;;;;;;;;;21.60;49.53;101932.78;7282467;19;153395;-59
2022/05/18 09:25:23;;;;;;;;;;;;;;;21.60;49.31;101938.41;7284875;19;151638;-59
2022/05/18 09:28:00;;;;;;;;;;;;;;;21.59;48.83;101939.53;7284656;19;151880;-59
2022/05/18 09:30:37;;;;;;;;;;;;;;;21.60;48.72;101928.00;7282942;19;154315;-59
2022/05/18 09:33:06;;;;;;;;;;;;;;;21.63;49.65;101926.56;7289280;19;151826;-59
2022/05/18 09:35:33;;;;;;;;;;;;;;;21.63;49.10;101921.78;7291808;19;153182;-58
2022/05/18 09:38:05;;;;;;;;;;;;;;;21.66;48.73;101914.75;7297171;19;154480;-59
2022/05/18 09:40:37;;;;;;;;;;;;;;;21.65;49.14;101908.28;7290576;19;152438;-58
2022/05/18 09:43:04;;;;;;;;;;;;;;;21.67;48.44;101903.19;7288320;19;154158;-59
2022/05/18 09:45:33;;;;;;;;;;;;;;;21.69;48.04;101909.38;7290929;19;151604;-59
2022/05/18 09:48:01;;;;;;;;;;;;;;;21.72;48.40;101905.97;7288497;19;152825;-58
2022/05/18 09:50:29;;;;;;;;;;;;;;;21.75;48.23;101910.19;7288175;19;153474;-59
2022/05/18 09:55:27;;;;;;;;;;;;;;;21.80;48.61;101893.28;7289640;19;153455;-58
2022/05/18 09:57:57;;;;;;;;;;;;;;;21.85;48.88;101898.81;7287633;19;153359;-59
2022/05/18 10:00:25;;;;;;;;;;;;;;;21.87;48.02;101890.94;7294735;19;151804;-58
2022/05/18 10:08:20;;;;;;;;;;;;;;;21.93;48.24;101887.00;7281911;19;152319;-59
2022/05/18 10:10:53;;;;;;;;;;;;;;;21.95;47.56;101890.34;7286801;19;152911;-58
2022/05/18 10:13:24;;;;;;;;;;;;;;;21.96;47.45;101888.38;7287962;19;151682;-58
2022/05/18 10:16:14;;;;;;;;;;;;;;;21.98;47.23;101891.75;7286583;19;151753;-59
2022/05/18 10:18:44;;;;;;;;;;;;;;;22.02;46.94;101892.81;7284875;19;154260;-58
2022/05/18 10:21:18;;;;;;;;;;;;;;;22.03;46.63;101898.13;7288251;19;151899;-59
2022/05/18 10:23:56;;;;;;;;;;;;;;;22.02;46.40;101878.75;7293641;19;154299;-59
2022/05/18 10:26:26;;;;;;;;;;;;;;;22.05;46.16;101889.41;7286886;19;151681;-59
2022/05/18 10:28:57;;;;;;;;;;;;;;;22.08;46.30;101871.91;7287248;19;153585;-59
2022/05/18 10:31:27;;;;;;;;;;;;;;;22.10;46.55;101866.84;7286918;19;154081;-59
2022/05/18 10:34:08;;;;;;;;;;;;;;;22.11;46.84;101860.94;7287743;19;152991;-59
2022/05/18 10:36:42;;;;;;;;;;;;;;;22.14;46.62;101862.28;7288516;19;153381;-59
2022/05/18 10:39:10;;;;;;;;;;;;;;;22.14;46.24;101857.50;7286256;19;152443;-58
2022/05/18 10:41:40;;;;;;;;;;;;;;;22.16;46.32;101854.41;7286775;19;152375;-59
2022/05/18 10:44:10;;;;;;;;;;;;;;;22.18;45.14;101854.94;7284647;19;153093;-59
2022/05/18 10:46:40;;;;;;;;;;;;;;;22.19;44.94;101856.63;7293028;19;154153;-59
2022/05/18 10:49:10;;;;;;;;;;;;;;;22.18;44.83;101858.59;7288582;19;152749;-59
2022/05/18 10:51:38;;;;;;;;;;;;;;;22.18;44.93;101855.78;7284849;19;153546;-59
2022/05/18 10:54:09;;;;;;;;;;;;;;;22.22;44.53;101850.38;7288343;19;151866;-59
2022/05/18 10:56:37;;;;;;;;;;;;;;;22.25;44.05;101855.44;7286473;19;152734;-58
2022/05/18 10:59:07;;;;;;;;;;;;;;;22.24;44.60;101850.94;7283643;19;155822;-59
2022/05/18 11:01:40;;;;;;;;;;;;;;;22.27;45.30;101853.16;7287144;19;152009;-59
2022/05/18 11:04:10;;;;;;;;;;;;;;;22.32;44.71;101849.44;7286073;19;152963;-59
2022/05/18 11:06:39;;;;;;;;;;;;;;;22.31;45.31;101845.78;7289606;19;153324;-59
2022/05/18 11:09:17;;;;;;;;;;;;;;;22.32;45.59;101833.38;7285324;19;151849;-60
2022/05/18 11:11:47;;;;;;;;;;;;;;;22.32;45.88;101841.00;7286223;19;154325;-58
2022/05/18 11:14:20;;;;;;;;;;;;;;;22.35;45.67;101848.84;7285284;19;153098;-58
2022/05/18 11:16:50;;;;;;;;;;;;;;;22.34;45.48;101853.66;7284394;19;151524;-59
2022/05/18 11:19:26;;;;;;;;;;;;;;;22.38;44.64;101845.44;7282033;19;151871;-58
2022/05/18 11:21:53;;;;;;;;;;;;;;;22.37;44.60;101836.16;7287022;19;151742;-59
2022/05/18 11:24:20;;;;;;;;;;;;;;;22.40;44.85;101841.16;7285038;19;153418;-58
2022/05/18 11:26:49;;;;;;;;;;;;;;;22.41;45.68;101840.03;7285421;19;153938;-60
2022/05/18 11:29:16;;;;;;;;;;;;;;;22.44;45.36;101838.63;7291032;19;151974;-59
2022/05/18 11:31:44;;;;;;;;;;;;;;;22.43;45.22;101834.97;7285188;19;153404;-59
2022/05/18 11:34:14;;;;;;;;;;;;;;;22.44;45.67;101828.16;7286248;19;151827;-59
2022/05/18 11:36:52;;;;;;;;;;;;;;;22.49;45.54;101832.88;7285663;19;155284;-59
2022/05/18 11:39:23;;;;;;;;;;;;;;;22.48;45.55;101823.63;7285375;19;153781;-58
2022/05/18 11:41:53;;;;;;;;;;;;;;;22.49;45.24;101816.84;7286323;19;151901;-59
2022/05/18 11:44:22;;;;;;;;;;;;;;;22.49;45.13;101825.28;7283482;19;151673;-59
2022/05/18 11:46:52;;;;;;;;;;;;;;;22.49;44.66;101830.06;7285461;19;153430;-58
2022/05/18 11:49:22;;;;;;;;;;;;;;;22.51;44.70;101825.84;7287058;19;152135;-59
2022/05/18 11:51:49;;;;;;;;;;;;;;;22.50;45.02;101812.88;7293736;19;152767;-59
2022/05/18 11:54:19;;;;;;;;;;;;;;;22.55;44.60;101826.91;7282478;19;152247;-59
2022/05/18 11:56:48;;;;;;;;;;;;;;;22.56;44.83;101825.78;7286199;19;152803;-59
2022/05/18 12:01:51;;;;;;;;;;;;;;;22.58;45.05;101815.03;7286462;19;151945;-60
2022/05/18 12:04:20;;;;;;;;;;;;;;;22.59;44.52;101813.91;7282895;19;152082;-59
2022/05/18 12:06:48;;;;;;;;;;;;;;;22.59;44.42;101813.06;7282899;19;152415;-58
2022/05/18 12:09:18;;;;;;;;;;;;;;;22.61;44.27;101803.19;7278246;19;152277;-58
2022/05/18 12:11:54;;;;;;;;;;;;;;;22.61;44.53;101793.88;7285899;19;152787;-59
2022/05/18 12:14:24;;;;;;;;;;;;;;;22.61;44.14;101783.47;7287708;19;152092;-59
2022/05/18 12:16:51;;;;;;;;;;;;;;;22.63;44.59;101769.91;7283385;19;151764;-58
2022/05/18 12:19:22;;;;;;;;;;;;;;;22.63;45.14;101767.06;7281305;19;152087;-61
2022/05/18 12:21:50;;;;;;;;;;;;;;;22.67;44.85;101772.94;7283343;19;151724;-58
2022/05/18 12:24:17;;;;;;;;;;;;;;;22.62;44.44;101776.66;7285068;19;152935;-59
2022/05/18 12:26:45;;;;;;;;;;;;;;;22.65;44.78;101761.16;7283785;19;153814;-59
2022/05/18 12:29:15;;;;;;;;;;;;;;;22.62;44.26;101762.56;7285451;19;151559;-59
2022/05/18 12:31:43;;;;;;;;;;;;;;;22.61;44.53;101758.09;7286308;19;153880;-59
2022/05/18 12:34:12;;;;;;;;;;;;;;;22.61;44.49;101760.09;7284626;19;154094;-58
2022/05/18 12:36:42;;;;;;;;;;;;;;;22.62;44.67;101762.56;7293816;19;151728;-59
2022/05/18 12:39:13;;;;;;;;;;;;;;;22.65;44.42;101771.59;7284893;19;154224;-58
2022/05/18 12:41:42;;;;;;;;;;;;;;;22.63;44.39;101767.06;7283131;19;151648;-59
2022/05/18 12:46:43;;;;;;;;;;;;;;;22.63;44.40;101750.19;7284570;19;153452;-60
2022/05/18 12:49:16;;;;;;;;;;;;;;;22.66;44.23;101750.72;7284584;19;152031;-59
2022/05/18 12:51:45;;;;;;;;;;;;;;;22.66;44.31;101742.28;7281788;19;152407;-58
2022/05/18 12:54:14;;;;;;;;;;;;;;;22.64;44.17;101742.56;7281338;19;152297;-58
2022/05/18 12:56:44;;;;;;;;;;;;;;;22.66;44.37;101737.47;7285425;19;151582;-58
2022/05/18 12:59:15;;;;;;;;;;;;;;;22.68;43.85;101726.72;7288581;19;152014;-59
2022/05/18 13:01:43;;;;;;;;;;;;;;;22.69;43.53;101722.78;7282195;19;151923;-58
2022/05/18 13:04:11;;;;;;;;;;;;;;;22.69;44.03;101721.94;7281811;19;151917;-58
2022/05/18 13:06:42;;;;;;;;;;;;;;;22.69;43.59;101733.19;7288022;19;154238;-58
2022/05/18 13:09:12;;;;;;;;;;;;;;;22.68;43.32;101738.00;7291905;19;151852;-61
2022/05/18 13:11:46;;;;;;;;;;;;;;;22.67;43.37;101735.50;7290753;19;152657;-59
2022/05/18 13:14:34;;;;;;;;;;;;;;;22.66;42.82;101742.28;7292216;19;155553;-59